AirNav   Pilot Hours Calculator
 
 762 users online  

17TE Comfort Airpark
Comfort, Texas, USA

GOING TO COMFORT?


FAA INFORMATION EFFECTIVE 15 JULY 2021

Location

FAA Identifier: 17TE
Lat/Long: 29-55-44.7790N 098-56-25.1230W
29-55.746317N 098-56.418717W
29.9291053,-98.9403119
(estimated)
Elevation: 1470 ft. / 448 m (estimated)
Variation: 07E (1985)
From city: 3 miles SW of COMFORT, TX
Time zone: UTC -5 (UTC -6 during Standard Time)
Zip code: 78010

Airport Operations

Airport use: Private use. Permission required prior to landing
Activation date: 03/1971
Control tower: no
ARTCC: HOUSTON CENTER
FSS: SAN ANGELO FLIGHT SERVICE STATION
Attendance: CONTINUOUS
OWNER RESIDES ON AIRPORT.
Wind indicator: yes
Segmented circle: no

Airport Communications

WX AWOS-3 at ERV (8 nm W): 118.125 (830-895-2204)
WX AWOS-3 at 5C1 (18 nm SE): 118.725 (830-755-9099)
WX AWOS-3 at T82 (19 nm N): 120.0 (830-990-2716)
  • MULTICOM 123.500.

Nearby radio navigation aids

VOR radial/distance  VOR name  Freq  Var
CSIr080/14.3CENTER POINT VORTAC117.5008E
STVr208/20.6STONEWALL VORTAC113.8008E
SATr296/30.2SAN ANTONIO VORTAC116.8008E

Airport Services

Airframe service: NONE
Powerplant service: NONE

Runway Information

Runway 14/32

Dimensions: 1950 x 30 ft. / 594 x 9 m
Surface: turf
RUNWAY 14  RUNWAY 32
Traffic pattern: leftleft
Obstructions: 4 ft. fence, marked, 50 ft. from runway15 ft. trees, 50 ft. from runway

Airport Ownership and Management from official FAA records

Ownership: Privately-owned
Owner: ANNA STEGMANN
175 AIR PARK RD.
COMFORT, TX 78013
Phone 714-316-9058
Manager: ANNA STEGMANN
175 AIR PARK RD.
COMFORT, TX 78013
Phone 714-316-9058

Airport Operational Statistics

Aircraft based on the field: 2
Single engine airplanes: 2
    

Additional Remarks

FOR CD CTC HOUSTON ARTCC AT 281-230-5622.
PRIVATE AIRSTRIP - OWNER APPROVAL REQUIRED FOR LANDING/USING RUNWAY. LAND AT OWN RISK.

Instrument Procedures

There are no published instrument procedures at 17TE.

Some nearby airports with instrument procedures:

KERV - Kerrville Municipal Airport/Louis Schreiner Field (8 nm W)
5C1 - Boerne Stage Field Airport (18 nm SE)
T82 - Gillespie County Airport (19 nm N)
KSAT - San Antonio International Airport (34 nm SE)
KCVB - Castroville Municipal Airport (36 nm S)
 
Loc | Ops | Rwys | IFR | FBO | Links
Com | Nav | Svcs | Stats | Notes
Area around 17TE (Comfort Airpark)
 
Road maps at: MapQuest Bing Google
 
Aerial photo
WARNING: Photo may not be current or correct
Aerial photo of 17TE (Comfort Airpark)
BARRY McCOLLOM - Realtor
Taken in November 2019

Do you have a better or more recent aerial photo of Comfort Airpark that you would like to share? If so, please send us your photo.

 
Sectional chart

 
Airport distance calculator
Flying to Comfort Airpark? Find the distance to fly.

From to 17TE

Sunrise and sunset
Times for 26-Jul-2021
 Local
(UTC-5)
 Zulu
(UTC)
Morning civil twilight06:2611:26
Sunrise06:5211:52
Sunset20:3201:32
Evening civil twilight20:5801:58

Current date and time
Zulu (UTC)  27-Jul-2021 03:55:04
Local (UTC-5)  26-Jul-2021 22:55:04
 
METAR
KERV 
8nm NW 
270335Z AUTO 11005KT 10SM CLR 26/21 A3003 RMK AO2 T02610206
K5C1 
18nm SE 
270335Z AUTO 00000KT 10SM CLR 23/19 A3002 RMK AO1
KT82 
19nm N 
270335Z AUTO 00000KT 10SM CLR 23/18 A3004 RMK AO2 T02270178
TAF
KSAT 
34nm SE 
261720Z 2618/2724 16009KT P6SM FEW250 FM271200 24005KT P6SM SCT025 SCT250 FM271800 16009KT P6SM SCT050 SCT250
KSKF 
39nm SE 
270200Z 2702/2808 14009KT 9999 FEW250 QNH2989INS BECMG 2705/2706 16008KT 9999 SKC QNH2992INS TX35/2721Z TN24/2712Z
NOTAMs
Click for the latest NOTAMs
NOTAMs are issued by the DoD/FAA and will open in a separate window not controlled by AirNav.

 

 
 

Would you like to see your business listed on this page?

 If your business provides an interesting product or service to pilots, flight crews, aircraft, or users of the Comfort Airpark, you should consider listing it here.  To start the listing process, click on the button below
 
Add a business
 

Other Pages about Comfort Airpark

Update a link
 
Copyright © AirNav, LLC. All rights reserved. Privacy Policy  Contact